Time;durP1;ratioP1;P1;durP2;ratioP2;P2;SDS_P1;SDS_P2;PMS_P1;PMS_P2;Temp;Humidity;BMP_temperature;BMP_pressure;BME280_temperature;BME280_humidity;BME280_pressure;Samples;Min_cycle;Max_cycle;Signal;HPM_P1;HPM_P2
2023/11/23 00:00:00;;;;;;;14.43;9.30;;;;;;;5.49;90.97;101777.91;4982621;28;20055;-82
2023/11/23 00:02:27;;;;;;;14.27;8.52;;;;;;;5.57;91.05;101780.84;4982535;28;20098;-81
2023/11/23 00:04:54;;;;;;;13.95;8.60;;;;;;;5.69;91.77;101784.41;4976282;28;20082;-83
2023/11/23 00:07:20;;;;;;;14.05;8.77;;;;;;;5.73;92.48;101785.06;4982313;28;20047;-83
2023/11/23 00:09:47;;;;;;;19.88;9.68;;;;;;;5.97;93.02;101773.16;4981689;28;20047;-83
2023/11/23 00:12:15;;;;;;;16.08;10.07;;;;;;;6.18;93.87;101773.53;4981460;28;20113;-82
2023/11/23 00:14:41;;;;;;;20.25;10.70;;;;;;;6.30;94.38;101770.97;4973354;28;20086;-82
2023/11/23 00:17:09;;;;;;;18.17;10.82;;;;;;;6.46;94.66;101775.16;4972172;28;20126;-82
2023/11/23 00:19:35;;;;;;;19.48;10.15;;;;;;;6.65;94.58;101770.38;4980933;28;20129;-82
2023/11/23 00:22:02;;;;;;;18.95;10.52;;;;;;;6.63;95.13;101757.47;4981280;28;20114;-82
2023/11/23 00:24:29;;;;;;;20.13;10.15;;;;;;;6.70;95.21;101750.09;4976155;28;20055;-80
2023/11/23 00:26:55;;;;;;;17.73;10.32;;;;;;;6.70;95.62;101741.47;4976215;28;20050;-80
2023/11/23 00:29:23;;;;;;;18.02;10.60;;;;;;;6.81;95.92;101750.22;4978456;28;20081;-80
2023/11/23 00:31:50;;;;;;;19.60;10.40;;;;;;;6.62;95.84;101749.78;4981045;28;20082;-80
2023/11/23 00:34:17;;;;;;;21.17;10.40;;;;;;;6.66;96.47;101746.03;4980249;28;20086;-80
2023/11/23 00:36:44;;;;;;;17.50;10.07;;;;;;;6.67;96.24;101745.09;4971977;28;20560;-80
2023/11/23 00:39:10;;;;;;;15.13;9.57;;;;;;;6.79;96.09;101746.03;4979478;28;20061;-80
2023/11/23 00:41:37;;;;;;;21.67;10.25;;;;;;;6.77;96.04;101735.75;4973323;28;20062;-80
2023/11/23 00:44:04;;;;;;;17.60;9.90;;;;;;;6.78;95.90;101731.38;4976395;28;20043;-80
2023/11/23 00:46:34;;;;;;;18.77;9.95;;;;;;;6.80;96.13;101738.13;4976553;28;20050;-78
2023/11/23 00:49:01;;;;;;;17.98;10.45;;;;;;;6.84;96.47;101734.38;4979578;28;20070;-80
2023/11/23 00:51:29;;;;;;;23.30;9.40;;;;;;;6.89;96.59;101737.50;4982604;28;20050;-80
2023/11/23 00:53:55;;;;;;;16.83;9.80;;;;;;;6.98;96.63;101720.44;4980978;28;20080;-78
2023/11/23 00:56:22;;;;;;;15.77;8.80;;;;;;;6.98;96.73;101718.66;4970939;28;20101;-80
2023/11/23 00:58:51;;;;;;;16.13;10.00;;;;;;;7.04;96.71;101725.22;4979079;28;20085;-79
2023/11/23 01:01:18;;;;;;;20.60;9.50;;;;;;;7.07;97.01;101714.59;4978965;28;20406;-79
2023/11/23 01:03:46;;;;;;;18.13;9.70;;;;;;;7.13;97.26;101726.31;4972621;28;20479;-80
2023/11/23 01:06:13;;;;;;;15.88;9.75;;;;;;;7.15;97.33;101727.88;4975112;28;20086;-79
2023/11/23 01:08:39;;;;;;;18.60;10.07;;;;;;;7.13;97.60;101728.94;4969658;28;20130;-79
2023/11/23 01:11:06;;;;;;;18.58;10.85;;;;;;;7.17;97.89;101725.19;4975556;28;20082;-78
2023/11/23 01:13:36;;;;;;;18.55;9.98;;;;;;;7.23;98.57;101724.75;4975127;28;20058;-78
2023/11/23 01:16:03;;;;;;;19.60;9.77;;;;;;;7.19;98.86;101736.31;4975246;28;20082;-78
2023/11/23 01:18:29;;;;;;;17.60;10.30;;;;;;;7.08;99.70;101729.28;4975357;28;20051;-79
2023/11/23 01:20:57;;;;;;;18.33;10.23;;;;;;;7.12;100.00;101729.88;4977163;28;20478;-79
2023/11/23 01:23:24;;;;;;;18.38;10.55;;;;;;;7.08;100.00;101725.84;4975789;28;20050;-79
2023/11/23 01:25:52;;;;;;;23.23;10.60;;;;;;;7.07;100.00;101730.22;4976725;28;20145;-78
2023/11/23 01:28:19;;;;;;;17.63;10.50;;;;;;;7.04;100.00;101729.59;4976204;28;20043;-78
2023/11/23 01:30:46;;;;;;;17.58;10.55;;;;;;;7.07;100.00;101719.81;4976830;28;20069;-78
2023/11/23 01:33:12;;;;;;;19.83;11.45;;;;;;;6.99;100.00;101715.13;4976575;28;20059;-79
2023/11/23 01:35:39;;;;;;;20.92;11.73;;;;;;;6.95;100.00;101712.84;4977175;28;20046;-78
2023/11/23 01:38:07;;;;;;;22.15;12.05;;;;;;;6.95;100.00;101726.69;4977319;28;20042;-79
2023/11/23 01:40:33;;;;;;;21.00;12.15;;;;;;;6.93;100.00;101723.34;4977420;28;20153;-79
2023/11/23 01:43:01;;;;;;;22.65;12.32;;;;;;;6.96;100.00;101727.53;4979549;28;20050;-80
2023/11/23 01:45:30;;;;;;;25.92;12.35;;;;;;;6.94;100.00;101729.41;4982185;28;20073;-82
2023/11/23 01:47:56;;;;;;;21.40;12.18;;;;;;;7.01;100.00;101733.25;4980286;28;20082;-79
2023/11/23 01:50:24;;;;;;;22.48;12.73;;;;;;;6.96;100.00;101724.91;4977445;28;20473;-79
2023/11/23 01:52:50;;;;;;;21.35;12.70;;;;;;;7.04;100.00;101724.38;4968935;28;20074;-78
2023/11/23 01:55:19;;;;;;;25.77;16.30;;;;;;;6.98;100.00;101728.25;4976134;28;20537;-79
2023/11/23 01:57:51;;;;;;;26.92;13.85;;;;;;;7.04;100.00;101738.22;4977647;28;20047;-80
2023/11/23 02:00:18;;;;;;;29.02;15.05;;;;;;;7.01;100.00;101737.63;4974680;28;20133;-80
2023/11/23 02:02:45;;;;;;;25.05;13.82;;;;;;;7.04;100.00;101734.81;4974188;28;20054;-81
2023/11/23 02:05:12;;;;;;;23.30;13.45;;;;;;;7.07;100.00;101734.59;4979751;28;20082;-80
2023/11/23 02:07:39;;;;;;;25.30;14.13;;;;;;;7.09;100.00;101730.91;4978696;28;20110;-79
2023/11/23 02:10:06;;;;;;;25.05;14.43;;;;;;;7.13;100.00;101744.53;4977980;28;20141;-79
2023/11/23 02:12:36;;;;;;;22.10;13.52;;;;;;;7.12;100.00;101729.88;4969111;28;20147;-80
2023/11/23 02:15:03;;;;;;;26.20;14.07;;;;;;;7.09;100.00;101740.53;4975095;28;20412;-80
2023/11/23 02:17:31;;;;;;;26.63;14.85;;;;;;;7.08;100.00;101744.91;4968193;28;20061;-79
2023/11/23 02:19:58;;;;;;;29.98;15.20;;;;;;;7.07;100.00;101743.22;4974297;28;20065;-80
2023/11/23 02:22:26;;;;;;;32.05;16.60;;;;;;;7.03;100.00;101728.75;4974142;28;20133;-80
2023/11/23 02:24:54;;;;;;;30.13;16.00;;;;;;;7.14;100.00;101736.63;4978011;28;20129;-79
2023/11/23 02:27:22;;;;;;;28.23;16.00;;;;;;;7.07;100.00;101734.59;4978824;28;20141;-80
2023/11/23 02:29:49;;;;;;;30.50;15.77;;;;;;;7.05;100.00;101726.06;4979765;28;20047;-80
2023/11/23 02:32:17;;;;;;;28.45;16.08;;;;;;;7.01;100.00;101728.03;4979720;28;20182;-79
2023/11/23 02:34:44;;;;;;;26.35;15.35;;;;;;;7.06;100.00;101725.13;4983062;28;20095;-79
2023/11/23 02:37:10;;;;;;;26.42;16.17;;;;;;;7.02;100.00;101726.25;4976330;28;20126;-80
2023/11/23 02:39:37;;;;;;;31.65;16.80;;;;;;;7.07;100.00;101705.97;4981562;28;20097;-79
2023/11/23 02:42:06;;;;;;;30.42;16.83;;;;;;;7.10;100.00;101708.31;4981655;28;20437;-79
2023/11/23 02:44:32;;;;;;;30.85;16.95;;;;;;;7.12;100.00;101735.06;4982670;28;20142;-80
2023/11/23 02:46:59;;;;;;;30.73;16.67;;;;;;;7.03;100.00;101723.56;4985571;28;20043;-80
2023/11/23 02:49:25;;;;;;;33.00;17.65;;;;;;;7.12;100.00;101719.47;4981898;28;20555;-80
2023/11/23 02:51:52;;;;;;;30.58;16.85;;;;;;;7.07;100.00;101722.41;4973155;28;20557;-79
2023/11/23 02:54:19;;;;;;;30.80;17.33;;;;;;;7.09;100.00;101725.72;4981135;28;20057;-79
2023/11/23 02:56:45;;;;;;;26.20;17.05;;;;;;;7.18;100.00;101724.25;4980117;28;20138;-79
2023/11/23 02:59:13;;;;;;;30.55;17.58;;;;;;;7.15;100.00;101721.84;4982668;28;20055;-79
2023/11/23 03:01:41;;;;;;;28.38;17.20;;;;;;;7.14;100.00;101715.81;4981196;28;20481;-79
2023/11/23 03:04:08;;;;;;;33.55;17.20;;;;;;;7.20;100.00;101714.56;4975795;28;20078;-80
2023/11/23 03:06:34;;;;;;;28.52;16.75;;;;;;;7.18;100.00;101709.44;4983774;28;20089;-81
2023/11/23 03:09:01;;;;;;;31.10;16.63;;;;;;;7.23;100.00;101709.13;4983397;28;20077;-81
2023/11/23 03:11:28;;;;;;;25.55;16.60;;;;;;;7.26;100.00;101719.31;4983868;28;20453;-80
2023/11/23 03:13:57;;;;;;;31.92;17.30;;;;;;;7.29;100.00;101711.31;4984906;28;20086;-81
2023/11/23 03:16:25;;;;;;;28.23;16.40;;;;;;;7.34;100.00;101709.22;4983849;28;20069;-81
2023/11/23 03:18:52;;;;;;;26.13;16.42;;;;;;;7.34;100.00;101711.81;4983338;28;20047;-82
2023/11/23 03:21:18;;;;;;;27.00;16.80;;;;;;;7.36;100.00;101715.16;4984730;28;20047;-81
2023/11/23 03:23:45;;;;;;;29.85;16.83;;;;;;;7.45;100.00;101708.44;4983825;28;20133;-81
2023/11/23 03:26:12;;;;;;;27.20;16.15;;;;;;;7.48;100.00;101709.06;4984312;28;20055;-81
2023/11/23 03:28:39;;;;;;;28.20;15.90;;;;;;;7.47;100.00;101704.78;4983481;28;20070;-80
2023/11/23 03:31:07;;;;;;;27.73;16.33;;;;;;;7.54;100.00;101707.81;4984397;28;20133;-80
2023/11/23 03:33:35;;;;;;;30.85;16.65;;;;;;;7.53;100.00;101701.75;4987131;28;20050;-80
2023/11/23 03:36:02;;;;;;;26.35;16.60;;;;;;;7.59;100.00;101705.66;4995744;28;20055;-80
2023/11/23 03:38:28;;;;;;;28.30;17.25;;;;;;;7.56;100.00;101706.72;4996917;28;20074;-81
2023/11/23 03:40:57;;;;;;;25.50;16.13;;;;;;;7.56;100.00;101704.13;4993361;28;20055;-80
2023/11/23 03:43:23;;;;;;;31.77;17.60;;;;;;;7.61;100.00;101694.19;4978469;28;20050;-80
2023/11/23 03:45:50;;;;;;;25.13;16.55;;;;;;;7.63;100.00;101681.91;4989047;28;20060;-80
2023/11/23 03:48:17;;;;;;;25.17;16.27;;;;;;;7.63;100.00;101689.72;4995073;28;20661;-80
2023/11/23 03:50:45;;;;;;;29.85;17.15;;;;;;;7.74;100.00;101681.13;4981568;28;20501;-80
2023/11/23 03:53:11;;;;;;;29.25;17.65;;;;;;;7.68;100.00;101675.53;4971021;28;20137;-79
2023/11/23 03:55:38;;;;;;;29.50;17.45;;;;;;;7.66;100.00;101675.63;4978514;28;20093;-79
2023/11/23 03:58:04;;;;;;;27.05;16.98;;;;;;;7.65;100.00;101681.78;4969772;28;20134;-80
2023/11/23 04:00:31;;;;;;;29.95;17.55;;;;;;;7.66;100.00;101680.84;4980266;28;20061;-79
2023/11/23 04:02:58;;;;;;;27.27;16.92;;;;;;;7.70;100.00;101691.88;4970245;28;20050;-80
2023/11/23 04:05:25;;;;;;;30.10;17.33;;;;;;;7.78;100.00;101679.13;4978517;28;20047;-80
2023/11/23 04:07:53;;;;;;;28.60;16.73;;;;;;;7.74;100.00;101686.34;4980191;28;20093;-79
2023/11/23 04:10:20;;;;;;;28.52;16.92;;;;;;;7.76;100.00;101681.00;4980496;28;20058;-78
2023/11/23 04:12:47;;;;;;;32.10;17.58;;;;;;;7.72;100.00;101676.97;4980273;28;20134;-80
2023/11/23 04:15:14;;;;;;;24.33;15.88;;;;;;;7.74;100.00;101675.91;4981366;28;20398;-78
2023/11/23 04:17:41;;;;;;;26.20;16.20;;;;;;;7.80;100.00;101682.44;4979300;28;20113;-79
2023/11/23 04:20:09;;;;;;;27.85;17.15;;;;;;;7.80;100.00;101677.22;4978690;28;20157;-79
2023/11/23 04:22:36;;;;;;;29.88;17.15;;;;;;;7.80;100.00;101680.69;4978811;28;20061;-78
2023/11/23 04:25:04;;;;;;;26.60;16.70;;;;;;;7.82;100.00;101659.72;4977825;28;20051;-77
2023/11/23 04:27:31;;;;;;;32.17;18.05;;;;;;;7.91;100.00;101666.88;4978496;28;20095;-79
2023/11/23 04:29:58;;;;;;;27.45;17.05;;;;;;;7.87;100.00;101668.03;4979974;28;20138;-78
2023/11/23 04:32:24;;;;;;;28.75;17.48;;;;;;;7.89;100.00;101677.41;4973671;28;20089;-80
2023/11/23 04:34:51;;;;;;;30.13;18.52;;;;;;;7.88;100.00;101673.13;4981226;28;20082;-80
2023/11/23 04:37:18;;;;;;;31.13;19.25;;;;;;;7.95;100.00;101660.47;4981111;28;20504;-82
2023/11/23 04:39:44;;;;;;;32.17;18.88;;;;;;;8.08;100.00;101669.03;4980512;28;20054;-81
2023/11/23 04:42:12;;;;;;;32.95;18.67;;;;;;;8.12;100.00;101670.47;4971870;28;20454;-80
2023/11/23 04:44:39;;;;;;;31.10;19.25;;;;;;;8.15;100.00;101677.22;4980868;28;20082;-79
2023/11/23 04:47:06;;;;;;;31.10;18.40;;;;;;;8.06;100.00;101675.28;4980794;28;20047;-79
2023/11/23 04:49:33;;;;;;;32.17;20.23;;;;;;;8.03;100.00;101681.59;4981117;28;20078;-78
2023/11/23 04:51:59;;;;;;;32.95;19.52;;;;;;;8.02;100.00;101677.31;4979246;28;20392;-79
2023/11/23 04:54:26;;;;;;;29.48;19.02;;;;;;;8.03;100.00;101672.94;4979154;28;20109;-80
2023/11/23 04:56:53;;;;;;;30.92;20.20;;;;;;;8.10;100.00;101674.94;4980881;28;20073;-80
2023/11/23 04:59:22;;;;;;;30.40;19.17;;;;;;;8.05;100.00;101677.06;4979911;28;20047;-80
2023/11/23 05:01:48;;;;;;;30.05;19.42;;;;;;;8.08;100.00;101663.81;4982297;28;20066;-80
2023/11/23 05:04:15;;;;;;;35.05;20.75;;;;;;;8.06;100.00;101664.88;4982507;28;20090;-80
2023/11/23 05:06:42;;;;;;;37.20;21.20;;;;;;;8.03;100.00;101663.34;4978197;28;20054;-79
2023/11/23 05:09:10;;;;;;;32.53;19.70;;;;;;;8.10;100.00;101658.47;4979673;28;20078;-81
2023/11/23 05:11:36;;;;;;;37.92;19.73;;;;;;;8.20;100.00;101654.25;4976483;28;20043;-80
2023/11/23 05:14:07;;;;;;;31.88;19.20;;;;;;;8.20;100.00;101660.28;4974856;28;20054;-78
2023/11/23 05:16:35;;;;;;;34.25;19.65;;;;;;;8.17;100.00;101655.31;4978629;28;20061;-80
2023/11/23 05:19:02;;;;;;;33.17;19.13;;;;;;;8.19;100.00;101656.03;4978006;28;20138;-78
2023/11/23 05:21:29;;;;;;;32.45;20.25;;;;;;;8.18;100.00;101648.31;4979605;28;20043;-81
2023/11/23 05:23:56;;;;;;;37.05;19.95;;;;;;;8.18;100.00;101659.56;4970928;28;20054;-79
2023/11/23 05:26:23;;;;;;;33.15;20.15;;;;;;;8.21;100.00;101656.72;4976555;28;20055;-80
2023/11/23 05:28:49;;;;;;;31.10;19.48;;;;;;;8.23;100.00;101657.44;4976266;28;20559;-79
2023/11/23 05:31:17;;;;;;;32.60;19.80;;;;;;;8.27;100.00;101645.00;4976927;28;20107;-80
2023/11/23 05:33:45;;;;;;;32.80;19.80;;;;;;;8.25;100.00;101647.75;4978355;28;20051;-79
2023/11/23 05:36:11;;;;;;;30.48;18.98;;;;;;;8.23;100.00;101654.84;4977530;28;20054;-80
2023/11/23 05:38:38;;;;;;;32.05;20.27;;;;;;;8.29;100.00;101651.78;4976540;28;20081;-80
2023/11/23 05:41:05;;;;;;;34.13;20.88;;;;;;;8.24;100.00;101656.50;4975753;28;20133;-80
2023/11/23 05:43:32;;;;;;;32.80;20.83;;;;;;;8.28;100.00;101651.91;4975443;28;20393;-80
2023/11/23 05:45:59;;;;;;;32.08;19.55;;;;;;;8.32;100.00;101659.41;4974586;28;20054;-80
2023/11/23 05:48:26;;;;;;;37.92;20.92;;;;;;;8.34;100.00;101661.06;4974752;28;20496;-80
2023/11/23 05:50:55;;;;;;;35.55;21.05;;;;;;;8.37;100.00;101655.63;4971494;28;20058;-80
2023/11/23 05:53:22;;;;;;;30.27;20.23;;;;;;;8.37;100.00;101666.03;4966586;28;20058;-80
2023/11/23 05:55:49;;;;;;;28.13;19.33;;;;;;;8.36;100.00;101656.56;4974772;28;20066;-81
2023/11/23 05:58:16;;;;;;;34.60;22.17;;;;;;;8.38;100.00;101657.28;4974515;28;20129;-80
2023/11/23 06:00:45;;;;;;;34.55;21.05;;;;;;;8.47;100.00;101670.44;4975639;28;20145;-80
2023/11/23 06:03:12;;;;;;;35.08;21.70;;;;;;;8.38;100.00;101660.72;4971342;28;20584;-80
2023/11/23 06:05:39;;;;;;;33.40;21.30;;;;;;;8.45;100.00;101676.72;4990296;23;20472;-77
2023/11/23 06:08:07;;;;;;;42.05;21.83;;;;;;;8.64;100.00;101669.13;4973854;28;20512;-76
2023/11/23 06:10:37;;;;;;;33.90;21.38;;;;;;;8.65;100.00;101678.63;4971339;28;20054;-78
2023/11/23 06:13:04;;;;;;;33.10;21.52;;;;;;;8.70;100.00;101675.66;4970687;28;20043;-77
2023/11/23 06:15:31;;;;;;;34.28;20.95;;;;;;;8.69;100.00;101672.22;4974991;28;20057;-77
2023/11/23 06:17:57;;;;;;;36.78;22.10;;;;;;;8.67;100.00;101668.06;4975379;28;20125;-76
2023/11/23 06:20:24;;;;;;;36.28;22.65;;;;;;;8.70;100.00;101676.50;4974835;28;20069;-77
2023/11/23 06:22:51;;;;;;;34.28;21.52;;;;;;;8.66;100.00;101656.81;4970016;28;20054;-78
2023/11/23 06:25:19;;;;;;;31.77;21.10;;;;;;;8.71;100.00;101649.47;4974810;28;20097;-79
2023/11/23 06:27:47;;;;;;;36.78;21.48;;;;;;;8.74;100.00;101656.22;4974940;28;20062;-77
2023/11/23 06:30:14;;;;;;;35.25;22.13;;;;;;;8.76;100.00;101657.75;4975021;28;20054;-76
2023/11/23 06:32:41;;;;;;;35.70;22.77;;;;;;;8.66;100.00;101648.97;4972640;28;20500;-77
2023/11/23 06:35:09;;;;;;;35.95;22.20;;;;;;;8.66;100.00;101667.25;4976379;28;20047;-78
2023/11/23 06:37:36;;;;;;;38.88;22.38;;;;;;;8.73;100.00;101660.59;4977816;28;20050;-78
2023/11/23 06:40:04;;;;;;;37.25;22.65;;;;;;;8.67;100.00;101653.25;4975160;28;20536;-79
2023/11/23 06:42:32;;;;;;;42.17;22.23;;;;;;;8.72;100.00;101653.72;4974122;28;20058;-75
2023/11/23 06:45:00;;;;;;;37.90;22.60;;;;;;;8.78;100.00;101655.88;4976319;28;20082;-77
2023/11/23 06:47:28;;;;;;;36.83;22.00;;;;;;;8.79;100.00;101657.53;4970568;28;20421;-80
2023/11/23 06:49:55;;;;;;;34.28;21.73;;;;;;;8.83;100.00;101652.91;4978034;28;20050;-79
2023/11/23 06:52:22;;;;;;;38.00;22.13;;;;;;;8.89;100.00;101649.81;4973437;28;20438;-78
2023/11/23 06:54:49;;;;;;;37.38;22.35;;;;;;;8.85;100.00;101646.63;4975803;28;20082;-78
2023/11/23 06:57:16;;;;;;;35.60;22.52;;;;;;;8.98;100.00;101643.84;4980083;28;20129;-78
2023/11/23 06:59:44;;;;;;;33.45;21.02;;;;;;;8.99;100.00;101643.72;4979391;28;20129;-78
2023/11/23 07:02:11;;;;;;;34.15;22.42;;;;;;;8.97;100.00;101643.03;4969508;28;20047;-78
2023/11/23 07:04:38;;;;;;;34.10;21.33;;;;;;;8.94;100.00;101630.22;4977036;28;20117;-76
2023/11/23 07:07:06;;;;;;;39.45;22.70;;;;;;;8.97;100.00;101631.78;4974604;28;20046;-78
2023/11/23 07:09:33;;;;;;;32.28;21.23;;;;;;;8.95;100.00;101626.66;4977744;28;20051;-78
2023/11/23 07:11:59;;;;;;;40.13;21.73;;;;;;;8.95;100.00;101631.06;4972668;28;20074;-77
2023/11/23 07:14:26;;;;;;;33.67;20.33;;;;;;;9.03;100.00;101631.25;4974622;28;20142;-79
2023/11/23 07:16:55;;;;;;;36.10;21.58;;;;;;;9.09;100.00;101632.56;4975138;28;20057;-78
2023/11/23 07:19:22;;;;;;;30.88;19.95;;;;;;;9.08;100.00;101625.69;4973750;28;20075;-79
2023/11/23 07:21:49;;;;;;;38.15;20.80;;;;;;;9.04;100.00;101624.25;4974878;28;20123;-78
2023/11/23 07:24:16;;;;;;;34.95;20.83;;;;;;;9.09;100.00;101622.13;4969055;28;20567;-78
2023/11/23 07:26:43;;;;;;;38.75;21.20;;;;;;;9.16;100.00;101625.91;4970301;28;20046;-78
2023/11/23 07:29:09;;;;;;;36.70;20.88;;;;;;;9.11;100.00;101635.88;4973312;28;20053;-79
2023/11/23 07:31:36;;;;;;;33.22;20.27;;;;;;;9.04;100.00;101619.88;4974622;28;20142;-78
2023/11/23 07:34:05;;;;;;;35.28;21.77;;;;;;;9.10;100.00;101629.00;4973989;28;20433;-78
2023/11/23 07:36:32;;;;;;;32.35;20.80;;;;;;;9.11;100.00;101628.03;4974220;28;20062;-79
2023/11/23 07:38:59;;;;;;;32.80;21.50;;;;;;;9.08;100.00;101626.50;4972305;28;20410;-77
2023/11/23 07:41:26;;;;;;;30.60;20.08;;;;;;;9.14;100.00;101627.81;4976622;28;20082;-78
2023/11/23 07:43:52;;;;;;;29.40;19.65;;;;;;;9.15;100.00;101621.63;4964464;28;20047;-78
2023/11/23 07:46:19;;;;;;;39.13;21.95;;;;;;;9.13;100.00;101628.75;4983247;28;20113;-81
2023/11/23 07:48:50;;;;;;;35.05;20.85;;;;;;;9.28;100.00;101622.31;4989295;28;20050;-80
2023/11/23 07:51:19;;;;;;;32.83;19.48;;;;;;;9.28;100.00;101627.53;4985676;28;20070;-80
2023/11/23 07:53:45;;;;;;;36.35;20.65;;;;;;;9.25;100.00;101635.63;4987513;28;20428;-80
2023/11/23 07:56:12;;;;;;;33.35;20.80;;;;;;;9.38;100.00;101627.63;4987112;28;20051;-79
2023/11/23 07:58:39;;;;;;;31.33;20.30;;;;;;;9.40;100.00;101623.13;4978061;28;20495;-79
2023/11/23 08:01:07;;;;;;;36.47;20.83;;;;;;;9.39;100.00;101619.66;4980399;28;20059;-77
2023/11/23 08:03:34;;;;;;;31.95;20.08;;;;;;;9.43;100.00;101621.09;4978621;28;20097;-79
2023/11/23 08:06:00;;;;;;;32.28;20.55;;;;;;;9.38;100.00;101612.78;4986309;28;20087;-79
2023/11/23 08:08:29;;;;;;;30.95;19.88;;;;;;;9.44;100.00;101611.47;4989325;28;20109;-80
2023/11/23 08:10:56;;;;;;;35.88;19.98;;;;;;;9.49;100.00;101619.72;4988722;28;20061;-80
2023/11/23 08:13:22;;;;;;;32.50;19.77;;;;;;;9.44;100.00;101604.44;4990402;28;20047;-79
2023/11/23 08:15:49;;;;;;;32.53;20.88;;;;;;;9.49;100.00;101597.03;4990201;28;20038;-81
2023/11/23 08:18:16;;;;;;;36.03;20.52;;;;;;;9.50;100.00;101596.09;4989758;28;20050;-80
2023/11/23 08:20:42;;;;;;;29.52;20.00;;;;;;;9.58;100.00;101609.34;4987070;28;20046;-80
2023/11/23 08:23:12;;;;;;;33.45;20.20;;;;;;;9.53;100.00;101611.50;4989888;28;20050;-80
2023/11/23 08:25:40;;;;;;;34.92;20.30;;;;;;;9.54;100.00;101610.56;4989836;28;20058;-78
2023/11/23 08:28:06;;;;;;;36.03;20.67;;;;;;;9.48;100.00;101602.38;4986767;28;20047;-79
2023/11/23 08:30:33;;;;;;;34.60;20.63;;;;;;;9.49;100.00;101610.09;4987429;28;20079;-78
2023/11/23 08:33:00;;;;;;;30.65;19.70;;;;;;;9.50;100.00;101601.31;4985744;28;20090;-78
2023/11/23 08:35:27;;;;;;;29.98;19.25;;;;;;;9.48;100.00;101612.84;4985312;28;20050;-79
2023/11/23 08:37:54;;;;;;;32.05;20.92;;;;;;;9.50;100.00;101610.94;4987014;28;20058;-80
2023/11/23 08:40:21;;;;;;;32.33;19.83;;;;;;;9.53;100.00;101611.50;4980415;28;20059;-78
2023/11/23 08:42:49;;;;;;;32.85;20.30;;;;;;;9.54;100.00;101613.19;4985419;28;20050;-79
2023/11/23 08:45:16;;;;;;;36.38;21.05;;;;;;;9.57;100.00;101612.94;4985103;28;20050;-80
2023/11/23 08:47:42;;;;;;;31.55;19.92;;;;;;;9.62;100.00;101604.72;4987328;28;20066;-79
2023/11/23 08:50:09;;;;;;;32.88;18.88;;;;;;;9.67;100.00;101604.34;4984480;28;20170;-80
2023/11/23 08:52:37;;;;;;;39.08;20.33;;;;;;;9.77;100.00;101594.78;4977121;28;20111;-80
2023/11/23 08:55:05;;;;;;;34.58;19.67;;;;;;;9.77;100.00;101597.41;4983396;28;20085;-79
2023/11/23 08:57:31;;;;;;;30.05;19.05;;;;;;;9.81;100.00;101593.56;4989529;28;20061;-79
2023/11/23 09:00:01;;;;;;;29.63;19.80;;;;;;;9.83;100.00;101589.06;4988184;28;20058;-78
2023/11/23 09:02:27;;;;;;;36.20;20.90;;;;;;;9.73;100.00;101585.53;4988302;28;20070;-80
2023/11/23 09:04:54;;;;;;;29.60;19.42;;;;;;;9.83;100.00;101592.50;4988906;28;20050;-79
2023/11/23 09:07:21;;;;;;;34.72;20.00;;;;;;;9.78;100.00;101599.06;4989548;28;20074;-80
2023/11/23 09:09:48;;;;;;;33.08;18.63;;;;;;;9.89;100.00;101585.94;4989831;28;20106;-81
2023/11/23 09:12:14;;;;;;;29.13;19.73;;;;;;;9.84;100.00;101582.88;4988348;28;20096;-80
2023/11/23 09:14:41;;;;;;;30.30;19.98;;;;;;;9.89;100.00;101586.75;4987653;28;20089;-79
2023/11/23 09:17:09;;;;;;;29.92;19.55;;;;;;;10.01;100.00;101595.34;4986322;28;20062;-79
2023/11/23 09:19:36;;;;;;;34.17;20.05;;;;;;;9.98;100.00;101590.34;4987806;28;20125;-79
2023/11/23 09:22:04;;;;;;;35.95;19.73;;;;;;;10.08;100.00;101593.03;4985729;28;20077;-79
2023/11/23 09:24:31;;;;;;;25.75;18.63;;;;;;;10.03;100.00;101593.41;4985493;28;20050;-80
2023/11/23 09:26:58;;;;;;;33.85;19.00;;;;;;;10.11;100.00;101591.00;4980509;28;20054;-77
2023/11/23 09:29:25;;;;;;;26.10;18.52;;;;;;;10.10;100.00;101589.34;4971944;28;20145;-79
2023/11/23 09:31:52;;;;;;;25.80;18.77;;;;;;;10.13;100.00;101590.88;4975573;28;20054;-79
2023/11/23 09:34:20;;;;;;;29.30;18.90;;;;;;;10.19;100.00;101585.97;4979475;28;20054;-80
2023/11/23 09:36:48;;;;;;;32.55;18.92;;;;;;;10.30;100.00;101601.59;4979259;28;20101;-80
2023/11/23 09:39:17;;;;;;;27.15;18.52;;;;;;;10.19;100.00;101585.97;4977048;28;20110;-80
2023/11/23 09:41:44;;;;;;;27.42;18.33;;;;;;;10.31;100.00;101589.34;4980758;28;20031;-80
2023/11/23 09:44:11;;;;;;;27.70;20.15;;;;;;;10.26;100.00;101584.50;4986626;28;20078;-78
2023/11/23 09:46:41;;;;;;;26.95;19.08;;;;;;;10.26;100.00;101579.28;4985425;28;20051;-80
2023/11/23 09:49:08;;;;;;;28.17;18.13;;;;;;;10.39;100.00;101580.84;4988047;28;20047;-80
2023/11/23 09:51:36;;;;;;;27.67;18.20;;;;;;;10.46;100.00;101576.72;4988318;28;20043;-80
2023/11/23 09:54:04;;;;;;;28.70;18.08;;;;;;;10.45;100.00;101569.81;4987879;28;20054;-79
2023/11/23 09:56:31;;;;;;;23.00;17.67;;;;;;;10.37;100.00;101574.91;4988106;28;20086;-77
2023/11/23 09:58:58;;;;;;;24.70;17.63;;;;;;;10.39;100.00;101578.22;4983651;28;20054;-79
2023/11/23 10:01:27;;;;;;;30.30;17.65;;;;;;;10.40;100.00;101574.66;4987309;28;20051;-80
2023/11/23 10:03:56;;;;;;;25.23;16.65;;;;;;;10.42;100.00;101567.47;4980627;28;20116;-79
2023/11/23 10:06:23;;;;;;;27.63;18.58;;;;;;;10.46;100.00;101561.00;4987944;28;20118;-80
2023/11/23 10:08:51;;;;;;;26.92;18.17;;;;;;;10.46;100.00;101551.38;4989303;28;20117;-81
2023/11/23 10:11:18;;;;;;;26.80;17.48;;;;;;;10.56;100.00;101564.50;4989362;28;20051;-79
2023/11/23 10:13:46;;;;;;;23.00;17.05;;;;;;;10.57;100.00;101550.44;4990063;28;20085;-79
2023/11/23 10:16:12;;;;;;;25.02;16.83;;;;;;;10.54;100.00;101535.84;4988078;28;20051;-80
2023/11/23 10:18:42;;;;;;;23.90;16.15;;;;;;;10.58;100.00;101541.63;4983726;28;20055;-79
2023/11/23 10:21:11;;;;;;;26.75;17.23;;;;;;;10.52;100.00;101516.81;4988104;28;20047;-80
2023/11/23 10:23:41;;;;;;;21.90;16.33;;;;;;;10.55;100.00;101497.41;4989832;28;20051;-80
2023/11/23 10:26:10;;;;;;;22.75;16.55;;;;;;;10.48;100.00;101498.91;4984634;28;20043;-80
2023/11/23 10:28:38;;;;;;;24.65;17.17;;;;;;;10.66;100.00;101522.66;4987154;28;20057;-78
2023/11/23 10:31:05;;;;;;;21.38;15.45;;;;;;;10.55;100.00;101541.91;4985319;28;20046;-79
2023/11/23 10:33:35;;;;;;;24.52;15.93;;;;;;;10.55;100.00;101527.03;4986364;28;20480;-78
2023/11/23 10:36:04;;;;;;;19.10;14.82;;;;;;;10.53;100.00;101515.88;4982664;28;20054;-79
2023/11/23 10:38:38;;;;;;;21.52;14.75;;;;;;;10.55;100.00;101510.50;4976187;28;20133;-78
2023/11/23 10:41:08;;;;;;;22.70;14.82;;;;;;;10.61;100.00;101504.72;4974025;28;20046;-78
2023/11/23 10:43:37;;;;;;;20.67;14.75;;;;;;;10.60;100.00;101497.84;4979982;28;20058;-78
2023/11/23 10:46:07;;;;;;;20.17;14.27;;;;;;;10.63;100.00;101501.03;4980571;28;20047;-79
2023/11/23 10:48:35;;;;;;;18.92;13.98;;;;;;;10.65;100.00;101513.97;4981128;28;20051;-79
2023/11/23 10:51:03;;;;;;;19.10;14.15;;;;;;;10.64;100.00;101514.94;4983362;28;20051;-78
2023/11/23 10:53:30;;;;;;;16.85;13.00;;;;;;;10.61;100.00;101518.66;4987962;28;20047;-80
2023/11/23 10:55:59;;;;;;;19.63;14.60;;;;;;;10.62;100.00;101501.16;4990411;28;20043;-80
2023/11/23 10:58:28;;;;;;;22.33;13.30;;;;;;;10.64;100.00;101515.75;4990431;28;20047;-78
2023/11/23 11:00:57;;;;;;;19.13;13.70;;;;;;;10.68;100.00;101505.03;4990953;28;20051;-81
2023/11/23 11:03:25;;;;;;;20.17;13.55;;;;;;;10.60;100.00;101487.38;4988576;28;20086;-79
2023/11/23 11:05:53;;;;;;;20.30;13.32;;;;;;;10.61;100.00;101466.31;4983020;28;20468;-79
2023/11/23 11:08:21;;;;;;;18.85;12.77;;;;;;;10.61;100.00;101458.44;4983901;28;20057;-79